sensor_id;sensor_type;location;lat;lon;timestamp;P1;durP1;ratioP1;P2;durP2;ratioP2
63342;SDS011;49465;57.664;39.686;2023-03-21T00:00:36;6.93;;;4.38;;
63342;SDS011;49465;57.664;39.686;2023-03-21T00:03:12;6.32;;;4.35;;
63342;SDS011;49465;57.664;39.686;2023-03-21T00:05:40;6.43;;;4.40;;
63342;SDS011;49465;57.664;39.686;2023-03-21T00:08:12;6.75;;;4.20;;
63342;SDS011;49465;57.664;39.686;2023-03-21T00:10:39;7.78;;;4.50;;
63342;SDS011;49465;57.664;39.686;2023-03-21T00:13:12;9.15;;;4.43;;
63342;SDS011;49465;57.664;39.686;2023-03-21T00:15:40;6.55;;;4.57;;
63342;SDS011;49465;57.664;39.686;2023-03-21T00:18:20;7.05;;;4.75;;
63342;SDS011;49465;57.664;39.686;2023-03-21T00:20:57;6.68;;;4.35;;
63342;SDS011;49465;57.664;39.686;2023-03-21T00:23:25;7.03;;;4.50;;
63342;SDS011;49465;57.664;39.686;2023-03-21T00:25:56;8.98;;;4.35;;
63342;SDS011;49465;57.664;39.686;2023-03-21T00:28:23;8.40;;;4.75;;
63342;SDS011;49465;57.664;39.686;2023-03-21T00:30:50;7.20;;;4.72;;
63342;SDS011;49465;57.664;39.686;2023-03-21T00:33:21;7.97;;;4.30;;
63342;SDS011;49465;57.664;39.686;2023-03-21T00:35:50;8.48;;;4.70;;
63342;SDS011;49465;57.664;39.686;2023-03-21T00:38:18;6.88;;;4.60;;
63342;SDS011;49465;57.664;39.686;2023-03-21T00:40:47;5.93;;;4.30;;
63342;SDS011;49465;57.664;39.686;2023-03-21T00:43:17;8.52;;;5.13;;
63342;SDS011;49465;57.664;39.686;2023-03-21T00:45:47;7.30;;;4.78;;
63342;SDS011;49465;57.664;39.686;2023-03-21T00:48:15;6.78;;;4.30;;
63342;SDS011;49465;57.664;39.686;2023-03-21T00:50:43;7.07;;;4.25;;
63342;SDS011;49465;57.664;39.686;2023-03-21T00:53:11;9.63;;;4.57;;
63342;SDS011;49465;57.664;39.686;2023-03-21T00:55:39;7.68;;;5.10;;
63342;SDS011;49465;57.664;39.686;2023-03-21T00:58:06;10.50;;;4.50;;
63342;SDS011;49465;57.664;39.686;2023-03-21T01:00:32;7.13;;;5.03;;
63342;SDS011;49465;57.664;39.686;2023-03-21T01:03:10;7.38;;;4.75;;
63342;SDS011;49465;57.664;39.686;2023-03-21T01:05:41;6.85;;;4.82;;
63342;SDS011;49465;57.664;39.686;2023-03-21T01:08:28;8.98;;;5.07;;
63342;SDS011;49465;57.664;39.686;2023-03-21T01:10:56;6.57;;;4.85;;
63342;SDS011;49465;57.664;39.686;2023-03-21T01:13:27;8.27;;;5.03;;
63342;SDS011;49465;57.664;39.686;2023-03-21T01:15:57;9.43;;;5.38;;
63342;SDS011;49465;57.664;39.686;2023-03-21T01:18:29;7.28;;;4.95;;
63342;SDS011;49465;57.664;39.686;2023-03-21T01:20:59;8.57;;;5.03;;
63342;SDS011;49465;57.664;39.686;2023-03-21T01:23:31;8.93;;;5.05;;
63342;SDS011;49465;57.664;39.686;2023-03-21T01:26:03;10.05;;;5.35;;
63342;SDS011;49465;57.664;39.686;2023-03-21T01:28:31;8.75;;;5.32;;
63342;SDS011;49465;57.664;39.686;2023-03-21T01:31:04;8.52;;;5.15;;
63342;SDS011;49465;57.664;39.686;2023-03-21T01:36:08;8.07;;;5.10;;
63342;SDS011;49465;57.664;39.686;2023-03-21T01:38:46;8.43;;;5.07;;
63342;SDS011;49465;57.664;39.686;2023-03-21T01:41:34;7.47;;;4.90;;
63342;SDS011;49465;57.664;39.686;2023-03-21T01:44:04;7.53;;;5.10;;
63342;SDS011;49465;57.664;39.686;2023-03-21T01:52:00;9.10;;;5.30;;
63342;SDS011;49465;57.664;39.686;2023-03-21T01:54:37;8.55;;;4.97;;
63342;SDS011;49465;57.664;39.686;2023-03-21T01:57:09;9.93;;;5.53;;
63342;SDS011;49465;57.664;39.686;2023-03-21T02:00:00;7.90;;;5.45;;
63342;SDS011;49465;57.664;39.686;2023-03-21T02:02:37;8.77;;;5.30;;
63342;SDS011;49465;57.664;39.686;2023-03-21T02:05:25;7.72;;;5.32;;
63342;SDS011;49465;57.664;39.686;2023-03-21T02:08:05;10.75;;;5.45;;
63342;SDS011;49465;57.664;39.686;2023-03-21T02:10:38;8.63;;;5.85;;
63342;SDS011;49465;57.664;39.686;2023-03-21T02:13:07;10.75;;;5.80;;
63342;SDS011;49465;57.664;39.686;2023-03-21T02:16:22;9.07;;;5.80;;
63342;SDS011;49465;57.664;39.686;2023-03-21T02:27:22;10.77;;;5.75;;
63342;SDS011;49465;57.664;39.686;2023-03-21T02:37:45;9.07;;;6.07;;
63342;SDS011;49465;57.664;39.686;2023-03-21T02:43:55;10.48;;;6.10;;
63342;SDS011;49465;57.664;39.686;2023-03-21T02:46:50;9.93;;;6.00;;
63342;SDS011;49465;57.664;39.686;2023-03-21T02:49:36;11.43;;;6.30;;
63342;SDS011;49465;57.664;39.686;2023-03-21T02:52:19;10.02;;;6.60;;
63342;SDS011;49465;57.664;39.686;2023-03-21T02:55:02;10.63;;;6.13;;
63342;SDS011;49465;57.664;39.686;2023-03-21T02:57:46;11.23;;;6.20;;
63342;SDS011;49465;57.664;39.686;2023-03-21T03:00:19;9.15;;;6.13;;
63342;SDS011;49465;57.664;39.686;2023-03-21T03:02:49;9.77;;;6.20;;
63342;SDS011;49465;57.664;39.686;2023-03-21T03:05:25;10.50;;;6.10;;
63342;SDS011;49465;57.664;39.686;2023-03-21T03:16:28;10.52;;;6.25;;
63342;SDS011;49465;57.664;39.686;2023-03-21T03:19:09;11.27;;;6.63;;
63342;SDS011;49465;57.664;39.686;2023-03-21T03:21:55;12.65;;;6.30;;
63342;SDS011;49465;57.664;39.686;2023-03-21T03:27:40;12.27;;;6.68;;
63342;SDS011;49465;57.664;39.686;2023-03-21T03:30:16;8.77;;;6.25;;
63342;SDS011;49465;57.664;39.686;2023-03-21T03:32:53;13.07;;;6.43;;
63342;SDS011;49465;57.664;39.686;2023-03-21T03:35:26;10.65;;;6.57;;
63342;SDS011;49465;57.664;39.686;2023-03-21T03:37:59;12.00;;;6.70;;
63342;SDS011;49465;57.664;39.686;2023-03-21T03:40:43;11.32;;;7.00;;
63342;SDS011;49465;57.664;39.686;2023-03-21T03:43:29;12.20;;;7.00;;
63342;SDS011;49465;57.664;39.686;2023-03-21T03:49:13;10.45;;;6.10;;
63342;SDS011;49465;57.664;39.686;2023-03-21T03:51:51;8.70;;;5.88;;
63342;SDS011;49465;57.664;39.686;2023-03-21T03:57:16;9.83;;;6.43;;
63342;SDS011;49465;57.664;39.686;2023-03-21T03:59:45;11.65;;;6.53;;
63342;SDS011;49465;57.664;39.686;2023-03-21T04:02:14;9.85;;;6.57;;
63342;SDS011;49465;57.664;39.686;2023-03-21T04:04:41;10.35;;;6.13;;
63342;SDS011;49465;57.664;39.686;2023-03-21T04:07:16;11.18;;;6.82;;
63342;SDS011;49465;57.664;39.686;2023-03-21T04:09:52;11.77;;;6.40;;
63342;SDS011;49465;57.664;39.686;2023-03-21T04:12:26;11.30;;;6.05;;
63342;SDS011;49465;57.664;39.686;2023-03-21T04:14:53;11.20;;;6.40;;
63342;SDS011;49465;57.664;39.686;2023-03-21T04:17:25;9.45;;;6.38;;
63342;SDS011;49465;57.664;39.686;2023-03-21T04:19:52;11.02;;;6.57;;
63342;SDS011;49465;57.664;39.686;2023-03-21T04:22:21;13.10;;;6.60;;
63342;SDS011;49465;57.664;39.686;2023-03-21T04:24:59;12.30;;;6.60;;
63342;SDS011;49465;57.664;39.686;2023-03-21T04:27:29;10.95;;;6.80;;
63342;SDS011;49465;57.664;39.686;2023-03-21T04:30:02;12.07;;;6.57;;
63342;SDS011;49465;57.664;39.686;2023-03-21T04:32:32;10.80;;;6.75;;
63342;SDS011;49465;57.664;39.686;2023-03-21T04:37:43;11.73;;;6.55;;
63342;SDS011;49465;57.664;39.686;2023-03-21T04:40:11;11.88;;;6.40;;
63342;SDS011;49465;57.664;39.686;2023-03-21T04:42:44;12.15;;;6.82;;
63342;SDS011;49465;57.664;39.686;2023-03-21T04:45:20;10.07;;;7.00;;
63342;SDS011;49465;57.664;39.686;2023-03-21T04:47:49;12.25;;;7.32;;
63342;SDS011;49465;57.664;39.686;2023-03-21T04:50:18;10.38;;;6.97;;
63342;SDS011;49465;57.664;39.686;2023-03-21T04:52:45;11.60;;;7.30;;
63342;SDS011;49465;57.664;39.686;2023-03-21T04:55:23;12.35;;;6.85;;
63342;SDS011;49465;57.664;39.686;2023-03-21T04:57:52;11.77;;;7.55;;
63342;SDS011;49465;57.664;39.686;2023-03-21T05:00:23;9.93;;;6.72;;
63342;SDS011;49465;57.664;39.686;2023-03-21T05:02:52;9.48;;;6.80;;
63342;SDS011;49465;57.664;39.686;2023-03-21T05:05:19;11.35;;;6.70;;
63342;SDS011;49465;57.664;39.686;2023-03-21T05:10:24;12.70;;;6.70;;
63342;SDS011;49465;57.664;39.686;2023-03-21T05:13:06;10.38;;;6.57;;
63342;SDS011;49465;57.664;39.686;2023-03-21T05:15:45;9.85;;;6.45;;
63342;SDS011;49465;57.664;39.686;2023-03-21T05:18:14;12.25;;;6.70;;
63342;SDS011;49465;57.664;39.686;2023-03-21T05:20:52;10.38;;;6.88;;
63342;SDS011;49465;57.664;39.686;2023-03-21T05:23:22;8.98;;;6.18;;
63342;SDS011;49465;57.664;39.686;2023-03-21T05:25:55;10.40;;;5.97;;
63342;SDS011;49465;57.664;39.686;2023-03-21T05:28:22;9.02;;;6.40;;
63342;SDS011;49465;57.664;39.686;2023-03-21T05:30:58;10.45;;;5.97;;
63342;SDS011;49465;57.664;39.686;2023-03-21T05:33:24;8.00;;;5.60;;
63342;SDS011;49465;57.664;39.686;2023-03-21T05:35:56;9.93;;;6.20;;
63342;SDS011;49465;57.664;39.686;2023-03-21T05:38:25;10.20;;;6.05;;
63342;SDS011;49465;57.664;39.686;2023-03-21T05:40:55;8.95;;;5.68;;
63342;SDS011;49465;57.664;39.686;2023-03-21T05:43:21;7.65;;;5.38;;
63342;SDS011;49465;57.664;39.686;2023-03-21T05:45:57;8.63;;;6.03;;
63342;SDS011;49465;57.664;39.686;2023-03-21T05:48:26;9.45;;;6.00;;
63342;SDS011;49465;57.664;39.686;2023-03-21T05:51:02;10.50;;;6.05;;
63342;SDS011;49465;57.664;39.686;2023-03-21T05:53:31;8.93;;;5.90;;
63342;SDS011;49465;57.664;39.686;2023-03-21T05:56:04;10.93;;;5.85;;
63342;SDS011;49465;57.664;39.686;2023-03-21T05:58:31;8.82;;;5.32;;
63342;SDS011;49465;57.664;39.686;2023-03-21T06:01:09;7.65;;;5.57;;
63342;SDS011;49465;57.664;39.686;2023-03-21T06:06:13;9.30;;;5.82;;
63342;SDS011;49465;57.664;39.686;2023-03-21T06:08:40;9.60;;;5.43;;
63342;SDS011;49465;57.664;39.686;2023-03-21T06:11:08;8.73;;;5.70;;
63342;SDS011;49465;57.664;39.686;2023-03-21T06:14:01;8.57;;;5.25;;
63342;SDS011;49465;57.664;39.686;2023-03-21T06:16:36;8.70;;;5.28;;
63342;SDS011;49465;57.664;39.686;2023-03-21T06:19:06;10.32;;;5.57;;
63342;SDS011;49465;57.664;39.686;2023-03-21T06:21:38;8.73;;;5.70;;
63342;SDS011;49465;57.664;39.686;2023-03-21T06:24:18;7.88;;;5.45;;
63342;SDS011;49465;57.664;39.686;2023-03-21T06:26:48;8.75;;;5.43;;
63342;SDS011;49465;57.664;39.686;2023-03-21T06:29:25;8.02;;;5.72;;
63342;SDS011;49465;57.664;39.686;2023-03-21T06:32:00;8.38;;;5.75;;
63342;SDS011;49465;57.664;39.686;2023-03-21T06:34:33;6.65;;;5.25;;
63342;SDS011;49465;57.664;39.686;2023-03-21T06:37:05;7.53;;;5.10;;
63342;SDS011;49465;57.664;39.686;2023-03-21T06:39:40;8.10;;;5.35;;
63342;SDS011;49465;57.664;39.686;2023-03-21T06:42:14;7.53;;;5.18;;
63342;SDS011;49465;57.664;39.686;2023-03-21T06:44:52;9.98;;;5.63;;
63342;SDS011;49465;57.664;39.686;2023-03-21T06:47:27;10.38;;;5.88;;
63342;SDS011;49465;57.664;39.686;2023-03-21T06:49:56;8.48;;;5.22;;
63342;SDS011;49465;57.664;39.686;2023-03-21T06:52:28;7.15;;;5.13;;
63342;SDS011;49465;57.664;39.686;2023-03-21T06:55:09;7.57;;;4.90;;
63342;SDS011;49465;57.664;39.686;2023-03-21T06:57:53;8.48;;;5.60;;
63342;SDS011;49465;57.664;39.686;2023-03-21T07:00:31;7.70;;;5.70;;
63342;SDS011;49465;57.664;39.686;2023-03-21T07:03:05;7.35;;;5.10;;
63342;SDS011;49465;57.664;39.686;2023-03-21T07:05:38;6.80;;;5.00;;
63342;SDS011;49465;57.664;39.686;2023-03-21T07:08:10;9.40;;;5.65;;
63342;SDS011;49465;57.664;39.686;2023-03-21T07:10:40;8.35;;;5.60;;
63342;SDS011;49465;57.664;39.686;2023-03-21T07:13:11;8.93;;;5.50;;
63342;SDS011;49465;57.664;39.686;2023-03-21T07:15:42;8.15;;;5.50;;
63342;SDS011;49465;57.664;39.686;2023-03-21T07:18:08;9.85;;;5.50;;
63342;SDS011;49465;57.664;39.686;2023-03-21T07:20:41;8.73;;;5.82;;
63342;SDS011;49465;57.664;39.686;2023-03-21T07:23:15;9.43;;;5.90;;
63342;SDS011;49465;57.664;39.686;2023-03-21T07:25:50;9.38;;;6.05;;
63342;SDS011;49465;57.664;39.686;2023-03-21T07:28:26;8.57;;;6.07;;
63342;SDS011;49465;57.664;39.686;2023-03-21T07:31:02;10.18;;;6.15;;
63342;SDS011;49465;57.664;39.686;2023-03-21T07:33:37;7.88;;;5.53;;
63342;SDS011;49465;57.664;39.686;2023-03-21T07:36:14;9.35;;;5.60;;
63342;SDS011;49465;57.664;39.686;2023-03-21T07:38:51;6.97;;;5.05;;
63342;SDS011;49465;57.664;39.686;2023-03-21T07:41:31;7.53;;;5.30;;
63342;SDS011;49465;57.664;39.686;2023-03-21T07:44:08;9.07;;;5.78;;
63342;SDS011;49465;57.664;39.686;2023-03-21T07:46:45;8.43;;;5.10;;
63342;SDS011;49465;57.664;39.686;2023-03-21T07:49:32;7.47;;;5.60;;
63342;SDS011;49465;57.664;39.686;2023-03-21T07:52:05;10.70;;;6.03;;
63342;SDS011;49465;57.664;39.686;2023-03-21T07:54:45;7.40;;;5.63;;
63342;SDS011;49465;57.664;39.686;2023-03-21T07:57:20;8.13;;;5.50;;
63342;SDS011;49465;57.664;39.686;2023-03-21T07:59:52;7.20;;;5.18;;
63342;SDS011;49465;57.664;39.686;2023-03-21T08:02:33;7.47;;;5.82;;
63342;SDS011;49465;57.664;39.686;2023-03-21T08:05:10;7.45;;;6.13;;
63342;SDS011;49465;57.664;39.686;2023-03-21T08:07:46;7.70;;;6.18;;
63342;SDS011;49465;57.664;39.686;2023-03-21T08:10:23;9.57;;;6.70;;
63342;SDS011;49465;57.664;39.686;2023-03-21T08:12:56;10.93;;;6.53;;
63342;SDS011;49465;57.664;39.686;2023-03-21T08:15:30;10.68;;;6.53;;
63342;SDS011;49465;57.664;39.686;2023-03-21T08:18:09;9.23;;;5.97;;
63342;SDS011;49465;57.664;39.686;2023-03-21T08:20:53;10.07;;;6.15;;
63342;SDS011;49465;57.664;39.686;2023-03-21T08:23:29;8.05;;;5.82;;
63342;SDS011;49465;57.664;39.686;2023-03-21T08:26:04;9.73;;;6.57;;
63342;SDS011;49465;57.664;39.686;2023-03-21T08:28:37;9.57;;;6.13;;
63342;SDS011;49465;57.664;39.686;2023-03-21T08:31:09;7.55;;;6.03;;
63342;SDS011;49465;57.664;39.686;2023-03-21T08:33:42;8.43;;;5.38;;
63342;SDS011;49465;57.664;39.686;2023-03-21T08:36:26;7.68;;;5.47;;
63342;SDS011;49465;57.664;39.686;2023-03-21T08:38:58;8.30;;;5.53;;
63342;SDS011;49465;57.664;39.686;2023-03-21T08:41:33;7.80;;;5.22;;
63342;SDS011;49465;57.664;39.686;2023-03-21T08:44:05;8.07;;;5.47;;
63342;SDS011;49465;57.664;39.686;2023-03-21T08:46:44;6.93;;;5.32;;
63342;SDS011;49465;57.664;39.686;2023-03-21T08:49:13;7.72;;;5.63;;
63342;SDS011;49465;57.664;39.686;2023-03-21T08:54:25;7.70;;;5.03;;
63342;SDS011;49465;57.664;39.686;2023-03-21T08:56:53;6.88;;;4.50;;
63342;SDS011;49465;57.664;39.686;2023-03-21T08:59:28;6.50;;;4.43;;
63342;SDS011;49465;57.664;39.686;2023-03-21T09:01:57;5.85;;;4.65;;
63342;SDS011;49465;57.664;39.686;2023-03-21T09:04:35;7.32;;;4.38;;
63342;SDS011;49465;57.664;39.686;2023-03-21T09:07:08;7.00;;;4.47;;
63342;SDS011;49465;57.664;39.686;2023-03-21T09:12:20;5.72;;;4.10;;
63342;SDS011;49465;57.664;39.686;2023-03-21T09:14:52;5.78;;;3.95;;
63342;SDS011;49465;57.664;39.686;2023-03-21T09:17:21;5.53;;;4.13;;
63342;SDS011;49465;57.664;39.686;2023-03-21T09:19:48;5.07;;;3.90;;
63342;SDS011;49465;57.664;39.686;2023-03-21T09:22:24;5.32;;;4.00;;
63342;SDS011;49465;57.664;39.686;2023-03-21T09:24:59;5.35;;;3.88;;
63342;SDS011;49465;57.664;39.686;2023-03-21T09:27:28;5.38;;;3.70;;
63342;SDS011;49465;57.664;39.686;2023-03-21T09:30:00;4.60;;;3.60;;
63342;SDS011;49465;57.664;39.686;2023-03-21T09:32:35;5.63;;;3.75;;
63342;SDS011;49465;57.664;39.686;2023-03-21T09:35:02;4.95;;;3.22;;
63342;SDS011;49465;57.664;39.686;2023-03-21T09:37:32;4.65;;;3.40;;
63342;SDS011;49465;57.664;39.686;2023-03-21T09:40:02;5.18;;;3.40;;
63342;SDS011;49465;57.664;39.686;2023-03-21T09:42:36;5.30;;;3.80;;
63342;SDS011;49465;57.664;39.686;2023-03-21T09:45:12;5.65;;;3.80;;
63342;SDS011;49465;57.664;39.686;2023-03-21T09:47:49;4.68;;;3.50;;
63342;SDS011;49465;57.664;39.686;2023-03-21T09:50:31;4.65;;;3.83;;
63342;SDS011;49465;57.664;39.686;2023-03-21T09:56:00;5.22;;;3.67;;
63342;SDS011;49465;57.664;39.686;2023-03-21T09:58:51;5.30;;;4.05;;
63342;SDS011;49465;57.664;39.686;2023-03-21T10:01:35;5.13;;;3.50;;
63342;SDS011;49465;57.664;39.686;2023-03-21T10:04:13;5.68;;;4.15;;
63342;SDS011;49465;57.664;39.686;2023-03-21T10:06:58;5.85;;;3.92;;
63342;SDS011;49465;57.664;39.686;2023-03-21T10:09:33;5.00;;;3.70;;
63342;SDS011;49465;57.664;39.686;2023-03-21T10:12:11;5.50;;;3.70;;
63342;SDS011;49465;57.664;39.686;2023-03-21T10:14:50;6.30;;;4.10;;
63342;SDS011;49465;57.664;39.686;2023-03-21T10:17:36;5.80;;;4.20;;
63342;SDS011;49465;57.664;39.686;2023-03-21T10:20:21;5.40;;;3.88;;
63342;SDS011;49465;57.664;39.686;2023-03-21T10:22:51;6.55;;;4.15;;
63342;SDS011;49465;57.664;39.686;2023-03-21T10:25:27;5.13;;;4.05;;
63342;SDS011;49465;57.664;39.686;2023-03-21T10:28:13;6.45;;;3.53;;
63342;SDS011;49465;57.664;39.686;2023-03-21T10:31:09;5.70;;;3.75;;
63342;SDS011;49465;57.664;39.686;2023-03-21T10:33:46;5.18;;;4.10;;
63342;SDS011;49465;57.664;39.686;2023-03-21T10:39:13;5.57;;;3.92;;
63342;SDS011;49465;57.664;39.686;2023-03-21T10:44:19;4.88;;;3.60;;
63342;SDS011;49465;57.664;39.686;2023-03-21T10:46:58;5.30;;;4.25;;
63342;SDS011;49465;57.664;39.686;2023-03-21T10:49:41;5.65;;;3.97;;
63342;SDS011;49465;57.664;39.686;2023-03-21T10:52:25;5.35;;;3.80;;
63342;SDS011;49465;57.664;39.686;2023-03-21T10:58:18;6.07;;;4.07;;
63342;SDS011;49465;57.664;39.686;2023-03-21T11:01:05;5.50;;;3.80;;
63342;SDS011;49465;57.664;39.686;2023-03-21T11:03:45;4.27;;;3.43;;
63342;SDS011;49465;57.664;39.686;2023-03-21T11:06:28;4.35;;;3.53;;
63342;SDS011;49465;57.664;39.686;2023-03-21T11:09:11;5.13;;;3.80;;
63342;SDS011;49465;57.664;39.686;2023-03-21T11:11:54;4.70;;;3.63;;
63342;SDS011;49465;57.664;39.686;2023-03-21T11:14:42;5.95;;;3.35;;
63342;SDS011;49465;57.664;39.686;2023-03-21T11:19:57;3.90;;;3.33;;
63342;SDS011;49465;57.664;39.686;2023-03-21T11:22:41;4.75;;;3.40;;
63342;SDS011;49465;57.664;39.686;2023-03-21T11:25:46;4.00;;;3.33;;
63342;SDS011;49465;57.664;39.686;2023-03-21T11:28:22;5.03;;;3.50;;
63342;SDS011;49465;57.664;39.686;2023-03-21T11:31:02;4.20;;;3.28;;
63342;SDS011;49465;57.664;39.686;2023-03-21T11:33:52;3.83;;;3.25;;
63342;SDS011;49465;57.664;39.686;2023-03-21T11:36:35;3.92;;;3.17;;
63342;SDS011;49465;57.664;39.686;2023-03-21T11:42:04;3.88;;;3.20;;
63342;SDS011;49465;57.664;39.686;2023-03-21T11:44:59;5.38;;;3.35;;
63342;SDS011;49465;57.664;39.686;2023-03-21T11:47:38;4.82;;;3.65;;
63342;SDS011;49465;57.664;39.686;2023-03-21T12:01:36;4.78;;;3.63;;
63342;SDS011;49465;57.664;39.686;2023-03-21T12:10:13;4.65;;;3.83;;
63342;SDS011;49465;57.664;39.686;2023-03-21T12:16:27;4.35;;;3.80;;
63342;SDS011;49465;57.664;39.686;2023-03-21T12:21:32;4.93;;;3.75;;
63342;SDS011;49465;57.664;39.686;2023-03-21T12:27:10;4.88;;;3.65;;
63342;SDS011;49465;57.664;39.686;2023-03-21T12:35:51;4.90;;;3.65;;
63342;SDS011;49465;57.664;39.686;2023-03-21T12:45:00;4.43;;;3.53;;
63342;SDS011;49465;57.664;39.686;2023-03-21T12:47:37;4.40;;;3.55;;
63342;SDS011;49465;57.664;39.686;2023-03-21T12:50:33;4.72;;;3.72;;
63342;SDS011;49465;57.664;39.686;2023-03-21T12:55:55;5.43;;;3.63;;
63342;SDS011;49465;57.664;39.686;2023-03-21T12:58:37;5.13;;;3.65;;
63342;SDS011;49465;57.664;39.686;2023-03-21T13:01:35;5.78;;;3.42;;
63342;SDS011;49465;57.664;39.686;2023-03-21T13:04:29;5.00;;;3.80;;
63342;SDS011;49465;57.664;39.686;2023-03-21T13:07:19;6.50;;;3.95;;
63342;SDS011;49465;57.664;39.686;2023-03-21T13:17:43;5.00;;;3.50;;
63342;SDS011;49465;57.664;39.686;2023-03-21T13:23:35;3.95;;;3.22;;
63342;SDS011;49465;57.664;39.686;2023-03-21T13:26:09;5.22;;;3.60;;
63342;SDS011;49465;57.664;39.686;2023-03-21T13:31:16;4.22;;;3.25;;
63342;SDS011;49465;57.664;39.686;2023-03-21T13:33:57;4.72;;;3.80;;
63342;SDS011;49465;57.664;39.686;2023-03-21T13:36:35;5.45;;;3.70;;
63342;SDS011;49465;57.664;39.686;2023-03-21T13:39:28;5.13;;;3.80;;
63342;SDS011;49465;57.664;39.686;2023-03-21T13:42:10;4.80;;;3.80;;
63342;SDS011;49465;57.664;39.686;2023-03-21T13:45:00;4.38;;;3.65;;
63342;SDS011;49465;57.664;39.686;2023-03-21T13:47:50;5.68;;;4.20;;
63342;SDS011;49465;57.664;39.686;2023-03-21T13:50:48;4.70;;;3.90;;
63342;SDS011;49465;57.664;39.686;2023-03-21T13:53:21;8.32;;;4.70;;
63342;SDS011;49465;57.664;39.686;2023-03-21T13:56:06;7.68;;;5.53;;
63342;SDS011;49465;57.664;39.686;2023-03-21T14:01:29;6.78;;;4.15;;
63342;SDS011;49465;57.664;39.686;2023-03-21T14:04:09;5.10;;;4.00;;
63342;SDS011;49465;57.664;39.686;2023-03-21T14:06:40;5.97;;;3.83;;
63342;SDS011;49465;57.664;39.686;2023-03-21T14:09:26;4.60;;;3.60;;
63342;SDS011;49465;57.664;39.686;2023-03-21T14:12:06;4.75;;;3.50;;
63342;SDS011;49465;57.664;39.686;2023-03-21T14:15:07;3.50;;;3.20;;
63342;SDS011;49465;57.664;39.686;2023-03-21T14:17:57;4.75;;;3.60;;
63342;SDS011;49465;57.664;39.686;2023-03-21T14:20:30;4.07;;;3.30;;
63342;SDS011;49465;57.664;39.686;2023-03-21T14:23:12;4.63;;;3.40;;
63342;SDS011;49465;57.664;39.686;2023-03-21T14:25:45;5.35;;;3.75;;
63342;SDS011;49465;57.664;39.686;2023-03-21T14:28:23;4.35;;;3.70;;
63342;SDS011;49465;57.664;39.686;2023-03-21T14:30:59;5.43;;;4.15;;
63342;SDS011;49465;57.664;39.686;2023-03-21T14:33:35;5.30;;;4.07;;
63342;SDS011;49465;57.664;39.686;2023-03-21T14:36:28;6.20;;;3.97;;
63342;SDS011;49465;57.664;39.686;2023-03-21T14:41:56;5.50;;;3.60;;
63342;SDS011;49465;57.664;39.686;2023-03-21T14:44:46;4.85;;;3.88;;
63342;SDS011;49465;57.664;39.686;2023-03-21T14:47:30;4.47;;;3.60;;
63342;SDS011;49465;57.664;39.686;2023-03-21T14:50:05;4.53;;;3.75;;
63342;SDS011;49465;57.664;39.686;2023-03-21T14:52:39;6.28;;;4.00;;
63342;SDS011;49465;57.664;39.686;2023-03-21T14:55:14;5.07;;;3.85;;
63342;SDS011;49465;57.664;39.686;2023-03-21T14:57:53;6.13;;;3.65;;
63342;SDS011;49465;57.664;39.686;2023-03-21T15:00:24;5.28;;;3.83;;
63342;SDS011;49465;57.664;39.686;2023-03-21T15:03:00;5.18;;;4.20;;
63342;SDS011;49465;57.664;39.686;2023-03-21T15:05:41;4.43;;;3.83;;
63342;SDS011;49465;57.664;39.686;2023-03-21T15:08:11;4.53;;;3.60;;
63342;SDS011;49465;57.664;39.686;2023-03-21T15:13:29;5.50;;;4.10;;
63342;SDS011;49465;57.664;39.686;2023-03-21T15:16:22;5.97;;;4.07;;
63342;SDS011;49465;57.664;39.686;2023-03-21T15:18:51;6.38;;;4.70;;
63342;SDS011;49465;57.664;39.686;2023-03-21T15:21:38;6.13;;;4.47;;
63342;SDS011;49465;57.664;39.686;2023-03-21T15:26:43;6.38;;;4.30;;
63342;SDS011;49465;57.664;39.686;2023-03-21T15:29:14;6.00;;;4.45;;
63342;SDS011;49465;57.664;39.686;2023-03-21T15:31:46;5.68;;;4.55;;
63342;SDS011;49465;57.664;39.686;2023-03-21T15:34:22;7.45;;;4.53;;
63342;SDS011;49465;57.664;39.686;2023-03-21T15:37:00;5.55;;;4.55;;
63342;SDS011;49465;57.664;39.686;2023-03-21T15:39:37;8.05;;;4.68;;
63342;SDS011;49465;57.664;39.686;2023-03-21T15:47:53;7.60;;;5.72;;
63342;SDS011;49465;57.664;39.686;2023-03-21T15:50:36;7.65;;;5.55;;
63342;SDS011;49465;57.664;39.686;2023-03-21T15:53:17;6.57;;;5.18;;
63342;SDS011;49465;57.664;39.686;2023-03-21T15:55:51;8.60;;;5.05;;
63342;SDS011;49465;57.664;39.686;2023-03-21T15:58:25;7.10;;;4.60;;
63342;SDS011;49465;57.664;39.686;2023-03-21T16:01:03;6.22;;;4.55;;
63342;SDS011;49465;57.664;39.686;2023-03-21T16:03:36;9.38;;;6.90;;
63342;SDS011;49465;57.664;39.686;2023-03-21T16:08:45;5.75;;;4.53;;
63342;SDS011;49465;57.664;39.686;2023-03-21T16:11:23;6.65;;;4.20;;
63342;SDS011;49465;57.664;39.686;2023-03-21T16:13:55;6.22;;;4.40;;
63342;SDS011;49465;57.664;39.686;2023-03-21T16:16:28;6.60;;;4.75;;
63342;SDS011;49465;57.664;39.686;2023-03-21T16:19:01;6.40;;;4.82;;
63342;SDS011;49465;57.664;39.686;2023-03-21T16:21:31;6.05;;;4.88;;
63342;SDS011;49465;57.664;39.686;2023-03-21T16:24:05;7.15;;;4.60;;
63342;SDS011;49465;57.664;39.686;2023-03-21T16:26:37;6.47;;;4.90;;
63342;SDS011;49465;57.664;39.686;2023-03-21T16:29:17;6.35;;;4.47;;
63342;SDS011;49465;57.664;39.686;2023-03-21T16:31:49;5.68;;;4.43;;
63342;SDS011;49465;57.664;39.686;2023-03-21T16:34:19;5.22;;;4.47;;
63342;SDS011;49465;57.664;39.686;2023-03-21T16:36:51;5.57;;;4.20;;
63342;SDS011;49465;57.664;39.686;2023-03-21T16:39:26;5.85;;;4.22;;
63342;SDS011;49465;57.664;39.686;2023-03-21T16:42:03;5.85;;;4.55;;
63342;SDS011;49465;57.664;39.686;2023-03-21T16:44:48;4.72;;;3.72;;
63342;SDS011;49465;57.664;39.686;2023-03-21T16:47:22;5.80;;;4.32;;
63342;SDS011;49465;57.664;39.686;2023-03-21T16:50:00;6.47;;;4.68;;
63342;SDS011;49465;57.664;39.686;2023-03-21T16:52:46;6.22;;;4.40;;
63342;SDS011;49465;57.664;39.686;2023-03-21T16:55:38;6.03;;;4.38;;
63342;SDS011;49465;57.664;39.686;2023-03-21T16:58:24;6.43;;;4.83;;
63342;SDS011;49465;57.664;39.686;2023-03-21T17:01:02;5.85;;;4.35;;
63342;SDS011;49465;57.664;39.686;2023-03-21T17:03:50;6.70;;;4.78;;
63342;SDS011;49465;57.664;39.686;2023-03-21T17:06:26;6.50;;;4.85;;
63342;SDS011;49465;57.664;39.686;2023-03-21T17:08:56;6.87;;;5.03;;
63342;SDS011;49465;57.664;39.686;2023-03-21T17:11:26;6.47;;;5.10;;
63342;SDS011;49465;57.664;39.686;2023-03-21T17:14:00;6.57;;;4.90;;
63342;SDS011;49465;57.664;39.686;2023-03-21T17:16:39;7.20;;;5.18;;
63342;SDS011;49465;57.664;39.686;2023-03-21T17:19:11;7.53;;;5.30;;
63342;SDS011;49465;57.664;39.686;2023-03-21T17:21:51;7.63;;;5.38;;
63342;SDS011;49465;57.664;39.686;2023-03-21T17:24:23;7.20;;;5.28;;
63342;SDS011;49465;57.664;39.686;2023-03-21T17:26:53;9.30;;;6.32;;
63342;SDS011;49465;57.664;39.686;2023-03-21T17:29:23;9.02;;;6.05;;
63342;SDS011;49465;57.664;39.686;2023-03-21T17:31:50;9.55;;;5.80;;
63342;SDS011;49465;57.664;39.686;2023-03-21T17:34:22;7.40;;;5.30;;
63342;SDS011;49465;57.664;39.686;2023-03-21T17:39:34;6.63;;;4.97;;
63342;SDS011;49465;57.664;39.686;2023-03-21T17:42:07;6.80;;;5.25;;
63342;SDS011;49465;57.664;39.686;2023-03-21T17:44:45;7.13;;;4.90;;
63342;SDS011;49465;57.664;39.686;2023-03-21T17:47:25;5.95;;;4.82;;
63342;SDS011;49465;57.664;39.686;2023-03-21T17:49:56;7.90;;;4.70;;
63342;SDS011;49465;57.664;39.686;2023-03-21T17:52:29;6.75;;;4.97;;
63342;SDS011;49465;57.664;39.686;2023-03-21T17:54:55;6.50;;;4.93;;
63342;SDS011;49465;57.664;39.686;2023-03-21T17:57:30;7.32;;;4.88;;